sensor_id;sensor_type;location;lat;lon;timestamp;P1;durP1;ratioP1;P2;durP2;ratioP2
53714;SDS011;39608;55.630;37.864;2022-10-16T00:02:51;10.95;;;4.05;;
53714;SDS011;39608;55.630;37.864;2022-10-16T00:07:54;6.28;;;4.03;;
53714;SDS011;39608;55.630;37.864;2022-10-16T00:12:57;12.73;;;3.92;;
53714;SDS011;39608;55.630;37.864;2022-10-16T00:18:00;7.93;;;3.80;;
53714;SDS011;39608;55.630;37.864;2022-10-16T00:23:03;9.93;;;3.97;;
53714;SDS011;39608;55.630;37.864;2022-10-16T00:28:05;7.97;;;3.63;;
53714;SDS011;39608;55.630;37.864;2022-10-16T00:33:07;10.00;;;3.78;;
53714;SDS011;39608;55.630;37.864;2022-10-16T00:38:13;10.55;;;3.63;;
53714;SDS011;39608;55.630;37.864;2022-10-16T00:48:37;9.48;;;4.18;;
53714;SDS011;39608;55.630;37.864;2022-10-16T00:53:42;6.72;;;3.40;;
53714;SDS011;39608;55.630;37.864;2022-10-16T00:58:44;9.05;;;3.90;;
53714;SDS011;39608;55.630;37.864;2022-10-16T01:03:46;11.10;;;3.42;;
53714;SDS011;39608;55.630;37.864;2022-10-16T01:08:52;8.88;;;3.75;;
53714;SDS011;39608;55.630;37.864;2022-10-16T01:14:05;7.38;;;3.53;;
53714;SDS011;39608;55.630;37.864;2022-10-16T01:19:16;8.27;;;3.08;;
53714;SDS011;39608;55.630;37.864;2022-10-16T01:24:30;8.57;;;3.55;;
53714;SDS011;39608;55.630;37.864;2022-10-16T01:29:41;6.25;;;3.50;;
53714;SDS011;39608;55.630;37.864;2022-10-16T01:34:51;5.85;;;3.38;;
53714;SDS011;39608;55.630;37.864;2022-10-16T01:39:58;9.93;;;3.22;;
53714;SDS011;39608;55.630;37.864;2022-10-16T01:45:04;7.22;;;3.35;;
53714;SDS011;39608;55.630;37.864;2022-10-16T01:50:08;8.27;;;2.97;;
53714;SDS011;39608;55.630;37.864;2022-10-16T01:55:11;6.13;;;3.55;;
53714;SDS011;39608;55.630;37.864;2022-10-16T02:00:17;4.47;;;2.75;;
53714;SDS011;39608;55.630;37.864;2022-10-16T02:05:25;7.18;;;2.83;;
53714;SDS011;39608;55.630;37.864;2022-10-16T02:10:30;7.97;;;3.53;;
53714;SDS011;39608;55.630;37.864;2022-10-16T02:15:33;7.68;;;3.13;;
53714;SDS011;39608;55.630;37.864;2022-10-16T02:20:37;6.97;;;3.10;;
53714;SDS011;39608;55.630;37.864;2022-10-16T02:25:45;7.28;;;3.03;;
53714;SDS011;39608;55.630;37.864;2022-10-16T02:30:50;14.30;;;3.30;;
53714;SDS011;39608;55.630;37.864;2022-10-16T02:35:56;5.80;;;2.97;;
53714;SDS011;39608;55.630;37.864;2022-10-16T02:40:59;6.10;;;3.08;;
53714;SDS011;39608;55.630;37.864;2022-10-16T02:46:03;6.30;;;2.78;;
53714;SDS011;39608;55.630;37.864;2022-10-16T02:51:05;5.70;;;3.60;;
53714;SDS011;39608;55.630;37.864;2022-10-16T02:56:07;6.05;;;3.08;;
53714;SDS011;39608;55.630;37.864;2022-10-16T03:01:11;5.18;;;3.70;;
53714;SDS011;39608;55.630;37.864;2022-10-16T03:06:14;4.25;;;2.72;;
53714;SDS011;39608;55.630;37.864;2022-10-16T03:11:16;4.38;;;2.47;;
53714;SDS011;39608;55.630;37.864;2022-10-16T03:16:19;9.10;;;2.70;;
53714;SDS011;39608;55.630;37.864;2022-10-16T03:21:21;7.43;;;2.72;;
53714;SDS011;39608;55.630;37.864;2022-10-16T03:26:23;3.70;;;2.63;;
53714;SDS011;39608;55.630;37.864;2022-10-16T03:31:27;4.70;;;2.45;;
53714;SDS011;39608;55.630;37.864;2022-10-16T03:36:29;5.78;;;2.88;;
53714;SDS011;39608;55.630;37.864;2022-10-16T03:41:31;4.78;;;2.42;;
53714;SDS011;39608;55.630;37.864;2022-10-16T03:46:34;3.95;;;2.80;;
53714;SDS011;39608;55.630;37.864;2022-10-16T03:51:36;3.58;;;2.45;;
53714;SDS011;39608;55.630;37.864;2022-10-16T03:56:38;4.90;;;2.97;;
53714;SDS011;39608;55.630;37.864;2022-10-16T04:01:42;4.97;;;3.00;;
53714;SDS011;39608;55.630;37.864;2022-10-16T04:06:44;6.85;;;2.53;;
53714;SDS011;39608;55.630;37.864;2022-10-16T04:11:46;5.07;;;2.65;;
53714;SDS011;39608;55.630;37.864;2022-10-16T04:16:49;5.43;;;3.05;;
53714;SDS011;39608;55.630;37.864;2022-10-16T04:21:51;7.55;;;2.58;;
53714;SDS011;39608;55.630;37.864;2022-10-16T04:26:53;8.13;;;2.85;;
53714;SDS011;39608;55.630;37.864;2022-10-16T04:31:57;4.88;;;2.60;;
53714;SDS011;39608;55.630;37.864;2022-10-16T04:36:59;3.78;;;2.38;;
53714;SDS011;39608;55.630;37.864;2022-10-16T04:42:01;6.78;;;2.58;;
53714;SDS011;39608;55.630;37.864;2022-10-16T04:47:04;6.03;;;2.97;;
53714;SDS011;39608;55.630;37.864;2022-10-16T04:52:08;6.60;;;3.42;;
53714;SDS011;39608;55.630;37.864;2022-10-16T04:57:10;5.70;;;2.75;;
53714;SDS011;39608;55.630;37.864;2022-10-16T05:02:13;7.40;;;2.60;;
53714;SDS011;39608;55.630;37.864;2022-10-16T05:07:15;5.68;;;2.83;;
53714;SDS011;39608;55.630;37.864;2022-10-16T05:12:17;8.98;;;3.50;;
53714;SDS011;39608;55.630;37.864;2022-10-16T05:17:22;6.50;;;2.70;;
53714;SDS011;39608;55.630;37.864;2022-10-16T05:22:24;9.48;;;3.25;;
53714;SDS011;39608;55.630;37.864;2022-10-16T05:27:29;9.55;;;2.97;;
53714;SDS011;39608;55.630;37.864;2022-10-16T05:32:33;7.53;;;3.15;;
53714;SDS011;39608;55.630;37.864;2022-10-16T05:37:35;6.25;;;3.13;;
53714;SDS011;39608;55.630;37.864;2022-10-16T05:42:37;4.88;;;2.75;;
53714;SDS011;39608;55.630;37.864;2022-10-16T05:47:40;5.28;;;2.78;;
53714;SDS011;39608;55.630;37.864;2022-10-16T05:52:42;5.30;;;3.22;;
53714;SDS011;39608;55.630;37.864;2022-10-16T05:57:44;4.53;;;2.95;;
53714;SDS011;39608;55.630;37.864;2022-10-16T06:02:47;13.38;;;3.30;;
53714;SDS011;39608;55.630;37.864;2022-10-16T06:07:49;7.57;;;3.90;;
53714;SDS011;39608;55.630;37.864;2022-10-16T06:12:51;6.47;;;3.60;;
53714;SDS011;39608;55.630;37.864;2022-10-16T06:17:55;7.85;;;3.65;;
53714;SDS011;39608;55.630;37.864;2022-10-16T06:22:57;9.05;;;3.97;;
53714;SDS011;39608;55.630;37.864;2022-10-16T06:27:59;9.57;;;3.92;;
53714;SDS011;39608;55.630;37.864;2022-10-16T06:33:02;4.45;;;3.33;;
53714;SDS011;39608;55.630;37.864;2022-10-16T06:38:04;5.63;;;3.60;;
53714;SDS011;39608;55.630;37.864;2022-10-16T06:43:06;6.85;;;3.70;;
53714;SDS011;39608;55.630;37.864;2022-10-16T06:48:10;9.30;;;3.63;;
53714;SDS011;39608;55.630;37.864;2022-10-16T06:53:12;7.60;;;3.42;;
53714;SDS011;39608;55.630;37.864;2022-10-16T06:58:14;8.82;;;4.57;;
53714;SDS011;39608;55.630;37.864;2022-10-16T07:03:17;8.02;;;3.65;;
53714;SDS011;39608;55.630;37.864;2022-10-16T07:08:19;7.95;;;3.80;;
53714;SDS011;39608;55.630;37.864;2022-10-16T07:13:21;5.70;;;3.10;;
53714;SDS011;39608;55.630;37.864;2022-10-16T07:18:24;11.32;;;3.85;;
53714;SDS011;39608;55.630;37.864;2022-10-16T07:23:28;12.05;;;3.88;;
53714;SDS011;39608;55.630;37.864;2022-10-16T07:28:30;5.50;;;3.88;;
53714;SDS011;39608;55.630;37.864;2022-10-16T07:33:35;7.15;;;3.75;;
53714;SDS011;39608;55.630;37.864;2022-10-16T07:38:37;10.18;;;3.60;;
53714;SDS011;39608;55.630;37.864;2022-10-16T07:43:39;9.27;;;3.75;;
53714;SDS011;39608;55.630;37.864;2022-10-16T07:48:43;9.65;;;4.80;;
53714;SDS011;39608;55.630;37.864;2022-10-16T07:53:47;9.05;;;3.95;;
53714;SDS011;39608;55.630;37.864;2022-10-16T07:58:50;12.05;;;3.80;;
53714;SDS011;39608;55.630;37.864;2022-10-16T08:03:54;7.55;;;3.67;;
53714;SDS011;39608;55.630;37.864;2022-10-16T08:08:56;9.25;;;4.55;;
53714;SDS011;39608;55.630;37.864;2022-10-16T08:14:00;18.73;;;4.68;;
53714;SDS011;39608;55.630;37.864;2022-10-16T08:19:03;10.20;;;4.43;;
53714;SDS011;39608;55.630;37.864;2022-10-16T08:24:05;11.80;;;4.47;;
53714;SDS011;39608;55.630;37.864;2022-10-16T08:29:07;10.55;;;4.53;;
53714;SDS011;39608;55.630;37.864;2022-10-16T08:34:11;12.68;;;4.88;;
53714;SDS011;39608;55.630;37.864;2022-10-16T08:39:13;14.77;;;5.65;;
53714;SDS011;39608;55.630;37.864;2022-10-16T08:44:29;12.30;;;4.70;;
53714;SDS011;39608;55.630;37.864;2022-10-16T08:49:38;14.10;;;4.60;;
53714;SDS011;39608;55.630;37.864;2022-10-16T08:54:44;11.00;;;4.38;;
53714;SDS011;39608;55.630;37.864;2022-10-16T08:59:49;7.10;;;4.30;;
53714;SDS011;39608;55.630;37.864;2022-10-16T09:05:05;9.20;;;4.63;;
53714;SDS011;39608;55.630;37.864;2022-10-16T09:10:28;6.63;;;3.63;;
53714;SDS011;39608;55.630;37.864;2022-10-16T09:15:41;8.00;;;4.25;;
53714;SDS011;39608;55.630;37.864;2022-10-16T09:20:51;9.35;;;4.32;;
53714;SDS011;39608;55.630;37.864;2022-10-16T09:26:00;7.22;;;4.13;;
53714;SDS011;39608;55.630;37.864;2022-10-16T09:31:04;6.63;;;3.40;;
53714;SDS011;39608;55.630;37.864;2022-10-16T09:36:07;8.25;;;3.50;;
53714;SDS011;39608;55.630;37.864;2022-10-16T09:41:14;8.43;;;3.65;;
53714;SDS011;39608;55.630;37.864;2022-10-16T09:46:25;8.98;;;3.17;;
53714;SDS011;39608;55.630;37.864;2022-10-16T09:51:30;6.35;;;3.13;;
53714;SDS011;39608;55.630;37.864;2022-10-16T09:56:36;12.50;;;3.28;;
53714;SDS011;39608;55.630;37.864;2022-10-16T10:01:39;9.18;;;3.20;;
53714;SDS011;39608;55.630;37.864;2022-10-16T10:06:45;11.90;;;3.30;;
53714;SDS011;39608;55.630;37.864;2022-10-16T10:11:50;9.32;;;2.80;;
53714;SDS011;39608;55.630;37.864;2022-10-16T10:17:02;5.75;;;2.50;;
53714;SDS011;39608;55.630;37.864;2022-10-16T10:27:32;8.00;;;2.75;;
53714;SDS011;39608;55.630;37.864;2022-10-16T10:32:42;11.93;;;2.22;;
53714;SDS011;39608;55.630;37.864;2022-10-16T10:38:00;7.80;;;2.67;;
53714;SDS011;39608;55.630;37.864;2022-10-16T10:43:11;6.65;;;2.97;;
53714;SDS011;39608;55.630;37.864;2022-10-16T10:48:30;6.88;;;2.97;;
53714;SDS011;39608;55.630;37.864;2022-10-16T10:53:52;3.85;;;2.58;;
53714;SDS011;39608;55.630;37.864;2022-10-16T11:04:55;10.35;;;3.08;;
53714;SDS011;39608;55.630;37.864;2022-10-16T11:10:19;4.80;;;2.65;;
53714;SDS011;39608;55.630;37.864;2022-10-16T11:15:25;5.05;;;3.40;;
53714;SDS011;39608;55.630;37.864;2022-10-16T11:25:36;5.95;;;2.40;;
53714;SDS011;39608;55.630;37.864;2022-10-16T11:30:41;7.50;;;2.80;;
53714;SDS011;39608;55.630;37.864;2022-10-16T11:35:48;5.43;;;2.17;;
53714;SDS011;39608;55.630;37.864;2022-10-16T11:40:59;4.13;;;2.20;;
53714;SDS011;39608;55.630;37.864;2022-10-16T11:46:08;6.47;;;2.30;;
53714;SDS011;39608;55.630;37.864;2022-10-16T11:51:16;5.30;;;2.40;;
53714;SDS011;39608;55.630;37.864;2022-10-16T11:56:28;5.32;;;2.42;;
53714;SDS011;39608;55.630;37.864;2022-10-16T12:01:37;3.78;;;2.55;;
53714;SDS011;39608;55.630;37.864;2022-10-16T12:06:44;6.03;;;2.80;;
53714;SDS011;39608;55.630;37.864;2022-10-16T12:11:52;4.25;;;2.55;;
53714;SDS011;39608;55.630;37.864;2022-10-16T12:16:56;6.30;;;2.72;;
53714;SDS011;39608;55.630;37.864;2022-10-16T12:22:01;3.97;;;2.53;;
53714;SDS011;39608;55.630;37.864;2022-10-16T12:27:17;4.00;;;2.55;;
53714;SDS011;39608;55.630;37.864;2022-10-16T12:32:30;8.88;;;2.70;;
53714;SDS011;39608;55.630;37.864;2022-10-16T12:37:37;6.13;;;2.85;;
53714;SDS011;39608;55.630;37.864;2022-10-16T12:42:42;8.10;;;2.90;;
53714;SDS011;39608;55.630;37.864;2022-10-16T12:47:48;5.85;;;2.72;;
53714;SDS011;39608;55.630;37.864;2022-10-16T12:52:54;6.22;;;2.95;;
53714;SDS011;39608;55.630;37.864;2022-10-16T12:58:09;3.67;;;2.35;;
53714;SDS011;39608;55.630;37.864;2022-10-16T13:03:35;5.57;;;2.38;;
53714;SDS011;39608;55.630;37.864;2022-10-16T13:09:07;10.05;;;2.50;;
53714;SDS011;39608;55.630;37.864;2022-10-16T13:14:30;6.18;;;2.80;;
53714;SDS011;39608;55.630;37.864;2022-10-16T13:19:48;4.60;;;2.70;;
53714;SDS011;39608;55.630;37.864;2022-10-16T13:25:03;8.52;;;2.60;;
53714;SDS011;39608;55.630;37.864;2022-10-16T13:30:21;7.30;;;2.95;;
53714;SDS011;39608;55.630;37.864;2022-10-16T13:35:26;4.00;;;2.78;;
53714;SDS011;39608;55.630;37.864;2022-10-16T13:40:30;8.57;;;3.20;;
53714;SDS011;39608;55.630;37.864;2022-10-16T13:45:36;4.28;;;3.00;;
53714;SDS011;39608;55.630;37.864;2022-10-16T13:50:40;12.77;;;3.30;;
53714;SDS011;39608;55.630;37.864;2022-10-16T13:55:42;8.60;;;2.75;;
53714;SDS011;39608;55.630;37.864;2022-10-16T14:00:54;10.15;;;3.78;;
53714;SDS011;39608;55.630;37.864;2022-10-16T14:05:59;8.68;;;3.72;;
53714;SDS011;39608;55.630;37.864;2022-10-16T14:11:03;9.15;;;3.50;;
53714;SDS011;39608;55.630;37.864;2022-10-16T14:16:09;5.35;;;3.30;;
53714;SDS011;39608;55.630;37.864;2022-10-16T14:21:12;6.17;;;3.20;;
53714;SDS011;39608;55.630;37.864;2022-10-16T14:26:18;12.48;;;4.15;;
53714;SDS011;39608;55.630;37.864;2022-10-16T14:31:27;7.13;;;3.35;;
53714;SDS011;39608;55.630;37.864;2022-10-16T14:36:31;10.40;;;3.22;;
53714;SDS011;39608;55.630;37.864;2022-10-16T14:41:40;6.72;;;3.00;;
53714;SDS011;39608;55.630;37.864;2022-10-16T14:46:46;8.60;;;3.13;;
53714;SDS011;39608;55.630;37.864;2022-10-16T14:51:49;7.28;;;2.85;;
53714;SDS011;39608;55.630;37.864;2022-10-16T14:56:52;6.63;;;2.88;;
53714;SDS011;39608;55.630;37.864;2022-10-16T15:02:00;9.25;;;3.35;;
53714;SDS011;39608;55.630;37.864;2022-10-16T15:07:15;7.25;;;4.25;;
53714;SDS011;39608;55.630;37.864;2022-10-16T15:12:17;14.15;;;4.22;;
53714;SDS011;39608;55.630;37.864;2022-10-16T15:17:21;21.75;;;5.28;;
53714;SDS011;39608;55.630;37.864;2022-10-16T15:22:23;16.00;;;5.32;;
53714;SDS011;39608;55.630;37.864;2022-10-16T15:27:25;14.95;;;4.90;;
53714;SDS011;39608;55.630;37.864;2022-10-16T15:32:28;14.77;;;5.25;;
53714;SDS011;39608;55.630;37.864;2022-10-16T15:37:32;17.85;;;5.43;;
53714;SDS011;39608;55.630;37.864;2022-10-16T15:42:34;17.58;;;6.47;;
53714;SDS011;39608;55.630;37.864;2022-10-16T15:47:38;26.38;;;7.43;;
53714;SDS011;39608;55.630;37.864;2022-10-16T15:52:42;18.98;;;7.30;;
53714;SDS011;39608;55.630;37.864;2022-10-16T15:57:44;15.75;;;6.38;;
53714;SDS011;39608;55.630;37.864;2022-10-16T16:02:51;25.40;;;7.70;;
53714;SDS011;39608;55.630;37.864;2022-10-16T16:07:54;18.45;;;6.40;;
53714;SDS011;39608;55.630;37.864;2022-10-16T16:12:56;26.13;;;7.22;;
53714;SDS011;39608;55.630;37.864;2022-10-16T16:18:00;18.38;;;8.70;;
53714;SDS011;39608;55.630;37.864;2022-10-16T16:23:06;14.40;;;7.10;;
53714;SDS011;39608;55.630;37.864;2022-10-16T16:28:08;14.70;;;6.18;;
53714;SDS011;39608;55.630;37.864;2022-10-16T16:33:12;12.02;;;5.93;;
53714;SDS011;39608;55.630;37.864;2022-10-16T16:38:14;17.77;;;6.30;;
53714;SDS011;39608;55.630;37.864;2022-10-16T16:43:16;13.23;;;5.70;;
53714;SDS011;39608;55.630;37.864;2022-10-16T16:48:20;12.38;;;5.30;;
53714;SDS011;39608;55.630;37.864;2022-10-16T16:53:23;10.30;;;5.45;;
53714;SDS011;39608;55.630;37.864;2022-10-16T16:58:25;15.98;;;6.05;;
53714;SDS011;39608;55.630;37.864;2022-10-16T17:03:29;20.27;;;6.18;;
53714;SDS011;39608;55.630;37.864;2022-10-16T17:08:32;19.08;;;6.43;;
53714;SDS011;39608;55.630;37.864;2022-10-16T17:13:35;20.63;;;6.22;;
53714;SDS011;39608;55.630;37.864;2022-10-16T17:18:40;25.88;;;5.80;;
53714;SDS011;39608;55.630;37.864;2022-10-16T17:23:44;14.73;;;5.30;;
53714;SDS011;39608;55.630;37.864;2022-10-16T17:28:49;26.88;;;6.03;;
53714;SDS011;39608;55.630;37.864;2022-10-16T17:33:54;13.60;;;6.35;;
53714;SDS011;39608;55.630;37.864;2022-10-16T17:38:57;14.27;;;5.15;;
53714;SDS011;39608;55.630;37.864;2022-10-16T17:44:01;10.57;;;4.97;;
53714;SDS011;39608;55.630;37.864;2022-10-16T17:49:05;10.93;;;4.90;;
53714;SDS011;39608;55.630;37.864;2022-10-16T17:54:07;10.38;;;4.88;;
53714;SDS011;39608;55.630;37.864;2022-10-16T17:59:10;14.57;;;5.82;;
53714;SDS011;39608;55.630;37.864;2022-10-16T18:04:14;9.75;;;4.78;;
53714;SDS011;39608;55.630;37.864;2022-10-16T18:09:17;8.93;;;4.30;;
53714;SDS011;39608;55.630;37.864;2022-10-16T18:14:20;10.90;;;5.35;;
53714;SDS011;39608;55.630;37.864;2022-10-16T18:19:24;12.07;;;5.95;;
53714;SDS011;39608;55.630;37.864;2022-10-16T18:24:27;8.25;;;4.93;;
53714;SDS011;39608;55.630;37.864;2022-10-16T18:29:29;11.25;;;5.22;;
53714;SDS011;39608;55.630;37.864;2022-10-16T18:34:36;8.75;;;4.55;;
53714;SDS011;39608;55.630;37.864;2022-10-16T18:39:38;9.77;;;4.80;;
53714;SDS011;39608;55.630;37.864;2022-10-16T18:44:40;10.75;;;4.80;;
53714;SDS011;39608;55.630;37.864;2022-10-16T18:49:43;12.02;;;4.57;;
53714;SDS011;39608;55.630;37.864;2022-10-16T18:54:47;7.75;;;4.18;;
53714;SDS011;39608;55.630;37.864;2022-10-16T18:59:49;9.13;;;5.00;;
53714;SDS011;39608;55.630;37.864;2022-10-16T19:04:52;13.35;;;5.00;;
53714;SDS011;39608;55.630;37.864;2022-10-16T19:09:54;10.27;;;4.40;;
53714;SDS011;39608;55.630;37.864;2022-10-16T19:14:56;12.73;;;4.25;;
53714;SDS011;39608;55.630;37.864;2022-10-16T19:20:00;8.60;;;3.92;;
53714;SDS011;39608;55.630;37.864;2022-10-16T19:25:03;7.28;;;3.67;;
53714;SDS011;39608;55.630;37.864;2022-10-16T19:30:06;6.15;;;3.75;;
53714;SDS011;39608;55.630;37.864;2022-10-16T19:35:10;7.35;;;3.80;;
53714;SDS011;39608;55.630;37.864;2022-10-16T19:40:13;6.93;;;3.70;;
53714;SDS011;39608;55.630;37.864;2022-10-16T19:45:15;4.75;;;3.40;;
53714;SDS011;39608;55.630;37.864;2022-10-16T19:50:18;6.63;;;3.60;;
53714;SDS011;39608;55.630;37.864;2022-10-16T19:55:20;12.15;;;4.25;;
53714;SDS011;39608;55.630;37.864;2022-10-16T20:00:22;6.70;;;3.17;;
53714;SDS011;39608;55.630;37.864;2022-10-16T20:05:26;8.60;;;3.15;;
53714;SDS011;39608;55.630;37.864;2022-10-16T20:10:28;8.77;;;3.83;;
53714;SDS011;39608;55.630;37.864;2022-10-16T20:15:30;9.35;;;3.20;;
53714;SDS011;39608;55.630;37.864;2022-10-16T20:20:37;6.63;;;3.50;;
53714;SDS011;39608;55.630;37.864;2022-10-16T20:25:39;13.85;;;2.83;;
53714;SDS011;39608;55.630;37.864;2022-10-16T20:30:43;5.88;;;3.05;;
53714;SDS011;39608;55.630;37.864;2022-10-16T20:35:48;6.47;;;3.17;;
53714;SDS011;39608;55.630;37.864;2022-10-16T20:40:51;7.13;;;2.63;;
53714;SDS011;39608;55.630;37.864;2022-10-16T20:45:57;5.57;;;2.83;;
53714;SDS011;39608;55.630;37.864;2022-10-16T20:51:10;6.90;;;2.78;;
53714;SDS011;39608;55.630;37.864;2022-10-16T20:56:13;4.70;;;2.28;;
53714;SDS011;39608;55.630;37.864;2022-10-16T21:01:17;4.95;;;2.38;;
53714;SDS011;39608;55.630;37.864;2022-10-16T21:06:22;4.20;;;2.55;;
53714;SDS011;39608;55.630;37.864;2022-10-16T21:11:26;3.75;;;2.58;;
53714;SDS011;39608;55.630;37.864;2022-10-16T21:16:30;4.20;;;2.30;;
53714;SDS011;39608;55.630;37.864;2022-10-16T21:21:36;4.28;;;2.83;;
53714;SDS011;39608;55.630;37.864;2022-10-16T21:26:38;4.88;;;2.70;;
53714;SDS011;39608;55.630;37.864;2022-10-16T21:31:41;5.43;;;2.60;;
53714;SDS011;39608;55.630;37.864;2022-10-16T21:36:44;4.97;;;2.05;;
53714;SDS011;39608;55.630;37.864;2022-10-16T21:41:47;6.70;;;2.38;;
53714;SDS011;39608;55.630;37.864;2022-10-16T21:46:50;3.20;;;2.40;;
53714;SDS011;39608;55.630;37.864;2022-10-16T21:51:53;3.00;;;2.00;;
53714;SDS011;39608;55.630;37.864;2022-10-16T21:56:55;2.08;;;1.88;;
53714;SDS011;39608;55.630;37.864;2022-10-16T22:01:57;4.20;;;2.45;;
53714;SDS011;39608;55.630;37.864;2022-10-16T22:07:03;4.93;;;2.50;;
53714;SDS011;39608;55.630;37.864;2022-10-16T22:12:05;10.40;;;2.72;;
53714;SDS011;39608;55.630;37.864;2022-10-16T22:17:07;5.00;;;3.00;;
53714;SDS011;39608;55.630;37.864;2022-10-16T22:22:10;5.28;;;2.75;;
53714;SDS011;39608;55.630;37.864;2022-10-16T22:27:12;9.07;;;3.40;;
53714;SDS011;39608;55.630;37.864;2022-10-16T22:32:14;4.95;;;3.10;;
53714;SDS011;39608;55.630;37.864;2022-10-16T22:37:17;6.65;;;2.75;;
53714;SDS011;39608;55.630;37.864;2022-10-16T22:42:19;7.70;;;3.08;;
53714;SDS011;39608;55.630;37.864;2022-10-16T22:47:21;6.18;;;2.60;;
53714;SDS011;39608;55.630;37.864;2022-10-16T22:52:25;5.45;;;3.00;;
53714;SDS011;39608;55.630;37.864;2022-10-16T22:57:27;6.05;;;2.88;;
53714;SDS011;39608;55.630;37.864;2022-10-16T23:02:29;5.47;;;2.78;;
53714;SDS011;39608;55.630;37.864;2022-10-16T23:07:33;5.93;;;3.25;;
53714;SDS011;39608;55.630;37.864;2022-10-16T23:12:35;7.57;;;2.53;;
53714;SDS011;39608;55.630;37.864;2022-10-16T23:17:37;7.30;;;2.50;;
53714;SDS011;39608;55.630;37.864;2022-10-16T23:22:40;3.72;;;2.65;;
53714;SDS011;39608;55.630;37.864;2022-10-16T23:27:42;6.32;;;2.90;;
53714;SDS011;39608;55.630;37.864;2022-10-16T23:32:45;4.45;;;2.47;;
53714;SDS011;39608;55.630;37.864;2022-10-16T23:37:48;6.22;;;2.70;;
53714;SDS011;39608;55.630;37.864;2022-10-16T23:42:50;3.92;;;2.58;;
53714;SDS011;39608;55.630;37.864;2022-10-16T23:47:52;4.20;;;2.22;;
53714;SDS011;39608;55.630;37.864;2022-10-16T23:52:56;4.10;;;2.28;;
53714;SDS011;39608;55.630;37.864;2022-10-16T23:57:58;8.68;;;3.30;;
